METAR Data
IDs: Format: Raw Decoded Include TAF

Data at: 1639 UTC 03 Dec 2021

METAR for:KGAI (Gaithersburg/Montgom, MD, US)
Text:KGAI 031556Z AUTO 31007G16KT 280V360 10SM SCT120 09/M01 A3006 RMK AO2 SLP195 T00941011
Temperature: 9.4°C ( 49°F)
Dewpoint: -1.1°C ( 30°F) [RH = 48%]
Pressure (altimeter):30.06 inches Hg (1018.0 mb) [Sea level pressure: 1019.5 mb]
Winds:from the NW (310 degrees) at 8 MPH (7 knots; 3.6 m/s) gusting to 18 MPH (16 knots; 8.2 m/s)
Visibility:10 or more sm (16+ km)
Ceiling:at least 12,000 feet AGL
Clouds: scattered clouds at 12000 feet AGL
QC Flag:automated observation with no human augmentation